createdAt,value
2018-08-19T00:00:56.251Z,15.40
2018-08-19T00:03:26.794Z,12.87
2018-08-19T00:05:57.314Z,12.63
2018-08-19T00:08:27.814Z,10.03
2018-08-19T00:11:09.908Z,9.73
2018-08-19T00:13:40.929Z,9.53
2018-08-19T00:16:12.256Z,11.83
2018-08-19T00:18:42.746Z,11.03
2018-08-19T00:21:13.261Z,10.67
2018-08-19T00:23:49.580Z,13.13
2018-08-19T00:26:20.073Z,10.87
2018-08-19T00:28:50.582Z,11.47
2018-08-19T00:31:20.905Z,11.90
2018-08-19T00:33:51.380Z,12.53
2018-08-19T00:36:31.724Z,13.80
2018-08-19T00:39:02.049Z,13.90
2018-08-19T00:41:32.324Z,13.17
2018-08-19T00:44:02.723Z,13.10
2018-08-19T00:46:35.243Z,12.83
2018-08-19T00:49:07.460Z,15.07
2018-08-19T00:51:46.549Z,12.03
2018-08-19T00:54:20.477Z,12.03
2018-08-19T00:56:53.207Z,13.93
2018-08-19T00:59:23.648Z,12.70
2018-08-19T01:01:54.089Z,12.70
2018-08-19T01:04:24.920Z,12.50
2018-08-19T01:06:56.490Z,15.07
2018-08-19T01:09:30.815Z,13.73
2018-08-19T01:12:01.433Z,11.30
2018-08-19T01:14:31.864Z,13.17
2018-08-19T01:17:02.201Z,12.67
2018-08-19T01:19:32.577Z,14.53
2018-08-19T01:22:02.979Z,15.30
2018-08-19T01:24:33.675Z,12.00
2018-08-19T01:27:04.023Z,11.83
2018-08-19T01:29:39.465Z,14.90
2018-08-19T01:32:12.354Z,11.03
2018-08-19T01:34:45.811Z,12.05
2018-08-19T01:37:16.495Z,13.13
2018-08-19T01:39:46.825Z,14.93
2018-08-19T01:42:17.261Z,11.60
2018-08-19T01:44:47.734Z,14.63
2018-08-19T01:47:18.097Z,16.23
2018-08-19T01:49:48.400Z,12.10
2018-08-19T01:52:18.816Z,17.90
2018-08-19T01:54:49.199Z,15.83
2018-08-19T01:57:19.451Z,15.20
2018-08-19T01:59:49.852Z,13.90
2018-08-19T02:02:20.168Z,13.03
2018-08-19T02:04:56.438Z,14.80
2018-08-19T02:07:27.178Z,13.17
2018-08-19T02:10:04.534Z,13.70
2018-08-19T02:12:39.688Z,11.27
2018-08-19T02:15:11.162Z,11.77
2018-08-19T02:17:46.575Z,14.77
2018-08-19T02:20:17.260Z,12.20
2018-08-19T02:22:52.338Z,14.40
2018-08-19T02:25:22.678Z,14.63
2018-08-19T02:27:52.968Z,15.47
2018-08-19T02:30:23.319Z,16.97
2018-08-19T02:32:56.057Z,13.17
2018-08-19T02:35:26.537Z,15.43
2018-08-19T02:37:56.981Z,13.87
2018-08-19T02:40:32.481Z,16.37
2018-08-19T02:43:02.937Z,17.53
2018-08-19T02:45:33.418Z,14.27
2018-08-19T02:48:03.925Z,13.90
2018-08-19T02:50:34.261Z,16.57
2018-08-19T02:53:04.735Z,15.23
2018-08-19T02:55:35.113Z,15.07
2018-08-19T02:58:10.352Z,14.40
2018-08-19T03:00:40.774Z,18.43
2018-08-19T03:03:11.098Z,13.43
2018-08-19T03:05:45.515Z,13.77
2018-08-19T03:08:15.763Z,12.87
2018-08-19T03:10:46.492Z,12.80
2018-08-19T03:13:16.767Z,18.07
2018-08-19T03:15:47.154Z,13.07
2018-08-19T03:18:17.649Z,12.90
2018-08-19T03:20:47.933Z,17.67
2018-08-19T03:23:18.180Z,14.50
2018-08-19T03:25:48.573Z,17.12
2018-08-19T03:28:18.848Z,15.00
2018-08-19T03:31:04.557Z,14.03
2018-08-19T03:33:34.769Z,15.13
2018-08-19T03:36:05.087Z,14.80
2018-08-19T03:38:35.405Z,18.83
2018-08-19T03:41:05.744Z,16.50
2018-08-19T03:43:36.131Z,12.77
2018-08-19T03:46:11.357Z,17.47
2018-08-19T03:48:41.708Z,15.07
2018-08-19T03:51:14.183Z,18.67
2018-08-19T03:53:45.073Z,16.10
2018-08-19T03:56:20.388Z,16.10
2018-08-19T03:58:51.575Z,13.83
2018-08-19T04:01:40.314Z,13.43
2018-08-19T04:04:11.467Z,13.73
2018-08-19T04:06:41.842Z,13.40
2018-08-19T04:09:12.120Z,16.20
2018-08-19T04:11:42.510Z,13.00
2018-08-19T04:14:28.373Z,13.47
2018-08-19T04:17:01.072Z,12.73
2018-08-19T04:19:31.568Z,17.97
2018-08-19T04:22:04.392Z,12.40
2018-08-19T04:29:30.715Z,14.87
2018-08-19T04:32:01.007Z,13.27
2018-08-19T04:34:31.264Z,11.73
2018-08-19T04:37:01.509Z,13.17
2018-08-19T04:39:31.841Z,13.97
2018-08-19T04:42:02.159Z,14.70
2018-08-19T04:44:32.990Z,15.10
2018-08-19T04:47:21.207Z,15.27
2018-08-19T04:49:52.945Z,15.20
2018-08-19T04:52:24.232Z,11.73
2018-08-19T04:54:55.789Z,15.90
2018-08-19T04:57:26.073Z,13.90
2018-08-19T04:59:56.378Z,13.60
2018-08-19T05:02:26.716Z,16.50
2018-08-19T05:04:57.041Z,15.27
2018-08-19T05:07:27.260Z,17.17
2018-08-19T05:09:57.535Z,15.53
2018-08-19T05:12:27.816Z,16.10
2018-08-19T05:14:58.258Z,12.70
2018-08-19T05:17:28.573Z,15.47
2018-08-19T05:20:18.516Z,16.07
2018-08-19T05:22:48.872Z,15.70
2018-08-19T05:25:19.209Z,21.37
2018-08-19T05:27:57.433Z,11.83
2018-08-19T05:30:28.197Z,13.63
2018-08-19T05:33:03.401Z,13.00
2018-08-19T05:35:34.802Z,13.57
2018-08-19T05:38:05.188Z,12.63
2018-08-19T05:40:35.474Z,12.97
2018-08-19T05:43:05.798Z,13.93
2018-08-19T05:45:41.393Z,12.00
2018-08-19T05:48:13.229Z,13.97
2018-08-19T05:50:43.573Z,13.43
2018-08-19T05:53:13.895Z,13.77
2018-08-19T05:55:44.276Z,17.53
2018-08-19T05:58:14.654Z,10.93
2018-08-19T06:00:48.660Z,14.83
2018-08-19T06:03:18.935Z,13.57
2018-08-19T06:05:49.400Z,17.87
2018-08-19T06:08:19.597Z,12.43
2018-08-19T06:10:49.869Z,13.03
2018-08-19T06:13:20.188Z,12.23
2018-08-19T06:15:50.562Z,12.67
2018-08-19T06:18:20.874Z,12.57
2018-08-19T06:20:51.244Z,9.90
2018-08-19T06:23:23.033Z,16.83
2018-08-19T06:25:53.397Z,13.20
2018-08-19T06:28:23.748Z,18.10
2018-08-19T06:30:54.083Z,12.67
2018-08-19T06:33:24.477Z,11.43
2018-08-19T06:35:54.851Z,12.03
2018-08-19T06:38:25.297Z,12.30
2018-08-19T06:40:55.787Z,13.67
2018-08-19T06:43:26.078Z,11.73
2018-08-19T06:45:56.451Z,12.37
2018-08-19T06:48:26.797Z,12.30
2018-08-19T06:50:57.295Z,11.50
2018-08-19T06:53:30.788Z,11.00
2018-08-19T06:56:01.239Z,10.33
2018-08-19T06:58:31.518Z,10.63
2018-08-19T07:01:01.871Z,11.50
2018-08-19T07:03:32.475Z,9.80
2018-08-19T07:06:11.353Z,8.80
2018-08-19T07:08:41.845Z,10.93
2018-08-19T07:11:12.327Z,10.87
2018-08-19T07:13:42.815Z,8.80
2018-08-19T07:16:13.283Z,10.80
2018-08-19T07:18:43.792Z,8.73
2018-08-19T07:21:14.057Z,9.30
2018-08-19T07:23:44.476Z,8.87
2018-08-19T07:26:14.880Z,10.27
2018-08-19T07:28:45.235Z,7.85
2018-08-19T07:31:15.652Z,10.65
2018-08-19T07:33:45.957Z,7.87
2018-08-19T07:36:16.453Z,12.85
2018-08-19T07:38:46.719Z,9.13
2018-08-19T07:41:17.198Z,9.00
2018-08-19T07:43:47.677Z,8.28
2018-08-19T07:46:18.733Z,10.05
2018-08-19T07:48:50.010Z,8.40
2018-08-19T07:51:23.644Z,8.78
2018-08-19T07:53:53.897Z,9.10
2018-08-19T07:56:24.112Z,8.58
2018-08-19T07:59:24.802Z,10.00
2018-08-19T08:01:55.033Z,9.43
2018-08-19T08:04:33.547Z,9.08
2018-08-19T08:07:03.707Z,9.53
2018-08-19T08:09:33.855Z,10.32
2018-08-19T08:12:04.160Z,8.70
2018-08-19T08:14:35.514Z,8.35
2018-08-19T08:17:08.030Z,10.85
2018-08-19T08:19:41.237Z,9.68
2018-08-19T08:22:15.808Z,7.78
2018-08-19T08:24:46.090Z,8.10
2018-08-19T08:27:16.308Z,8.93
2018-08-19T08:29:46.837Z,8.20
2018-08-19T08:32:17.033Z,9.50
2018-08-19T08:34:47.205Z,7.77
2018-08-19T08:37:17.538Z,9.90
2018-08-19T08:39:49.974Z,9.33
2018-08-19T08:42:20.424Z,7.35
2018-08-19T08:44:50.579Z,9.93
2018-08-19T08:47:20.849Z,6.37
2018-08-19T08:49:51.050Z,7.10
2018-08-19T08:52:24.687Z,6.70
2018-08-19T08:54:59.790Z,6.42
2018-08-19T08:57:30.155Z,5.87
2018-08-19T09:00:00.677Z,6.87
2018-08-19T09:02:41.773Z,7.80
2018-08-19T09:05:13.184Z,9.78
2018-08-19T09:07:43.578Z,7.53
2018-08-19T09:10:15.204Z,9.23
2018-08-19T09:12:54.920Z,8.03
2018-08-19T09:15:25.149Z,6.67
2018-08-19T09:17:55.417Z,6.75
2018-08-19T09:20:25.591Z,7.50
2018-08-19T09:22:55.811Z,8.33
2018-08-19T09:25:26.062Z,9.30
2018-08-19T09:27:56.862Z,7.42
2018-08-19T09:30:42.337Z,9.53
2018-08-19T09:33:13.447Z,6.58
2018-08-19T09:35:44.266Z,6.37
2018-08-19T09:38:21.165Z,8.55
2018-08-19T09:40:51.437Z,8.70
2018-08-19T09:43:21.621Z,7.53
2018-08-19T09:45:51.839Z,7.80
2018-08-19T09:48:22.179Z,7.12
2018-08-19T09:50:53.594Z,8.93
2018-08-19T09:53:24.160Z,7.75
2018-08-19T09:55:59.628Z,7.47
2018-08-19T09:58:29.901Z,8.78
2018-08-19T10:01:05.251Z,8.38
2018-08-19T10:03:35.493Z,6.75
2018-08-19T10:06:06.178Z,7.78
2018-08-19T10:08:36.681Z,10.05
2018-08-19T10:11:08.741Z,10.55
2018-08-19T10:13:38.915Z,12.23
2018-08-19T10:16:09.055Z,10.35
2018-08-19T10:18:39.433Z,8.73
2018-08-19T10:21:14.017Z,8.33
2018-08-19T10:23:44.204Z,9.53
2018-08-19T10:26:14.514Z,10.68
2018-08-19T10:28:44.622Z,9.68
2018-08-19T10:31:19.452Z,8.23
2018-08-19T10:33:52.657Z,11.48
2018-08-19T10:36:22.848Z,8.50
2018-08-19T10:38:53.075Z,7.03
2018-08-19T10:41:24.130Z,7.42
2018-08-19T10:43:54.485Z,11.38
2018-08-19T10:46:24.690Z,8.53
2018-08-19T10:48:54.878Z,8.63
2018-08-19T10:51:25.095Z,10.40
2018-08-19T10:53:55.253Z,8.40
2018-08-19T10:56:27.049Z,9.13
2018-08-19T10:58:59.611Z,11.78
2018-08-19T11:01:30.235Z,8.98
2018-08-19T11:04:00.650Z,8.00
2018-08-19T11:06:31.086Z,10.82
2018-08-19T11:09:01.312Z,10.82
2018-08-19T11:11:34.155Z,11.30
2018-08-19T11:14:10.309Z,10.78
2018-08-19T11:16:40.514Z,11.80
2018-08-19T11:19:10.750Z,12.78
2018-08-19T11:21:41.313Z,9.00
2018-08-19T11:24:19.318Z,12.13
2018-08-19T11:26:54.741Z,9.10
2018-08-19T11:29:24.981Z,11.75
2018-08-19T11:31:55.210Z,7.50
2018-08-19T11:34:25.338Z,9.90
2018-08-19T11:36:55.621Z,10.32
2018-08-19T11:39:31.809Z,9.73
2018-08-19T11:42:01.983Z,10.75
2018-08-19T11:44:35.715Z,10.35
2018-08-19T11:47:05.929Z,9.93
2018-08-19T11:49:36.191Z,13.13
2018-08-19T11:52:06.468Z,12.28
2018-08-19T11:54:36.649Z,12.78
2018-08-19T11:57:10.094Z,12.00
2018-08-19T11:59:42.462Z,11.73
2018-08-19T12:02:15.987Z,10.90
2018-08-19T12:04:46.475Z,10.23
2018-08-19T12:07:17.160Z,9.35
2018-08-19T12:09:54.866Z,10.57
2018-08-19T12:12:55.775Z,13.53
2018-08-19T12:15:26.029Z,11.63
2018-08-19T12:17:56.260Z,9.30
2018-08-19T12:20:34.491Z,11.20
2018-08-19T12:23:04.740Z,8.35
2018-08-19T12:25:35.095Z,9.80
2018-08-19T12:28:05.367Z,10.88
2018-08-19T12:30:35.550Z,14.10
2018-08-19T12:33:22.737Z,8.43
2018-08-19T12:35:56.474Z,9.30
2018-08-19T12:38:27.032Z,9.45
2018-08-19T12:40:57.325Z,11.33
2018-08-19T12:43:27.551Z,9.30
2018-08-19T12:45:58.596Z,9.35
2018-08-19T12:48:28.857Z,7.37
2018-08-19T12:51:05.869Z,10.20
2018-08-19T12:53:42.548Z,9.20
2018-08-19T12:56:13.896Z,9.48
2018-08-19T12:58:44.052Z,9.90
2018-08-19T13:01:14.281Z,9.40
2018-08-19T13:03:44.539Z,7.90
2018-08-19T13:06:14.760Z,13.13
2018-08-19T13:08:44.952Z,10.05
2018-08-19T13:11:15.058Z,10.40
2018-08-19T13:13:45.904Z,13.28
2018-08-19T13:16:16.050Z,9.38
2018-08-19T13:18:46.151Z,8.35
2018-08-19T13:21:19.217Z,10.80
2018-08-19T13:23:49.333Z,7.87
2018-08-19T13:26:19.556Z,9.45
2018-08-19T13:28:52.643Z,7.28
2018-08-19T13:31:27.197Z,11.78
2018-08-19T13:33:57.360Z,9.03
2018-08-19T13:36:27.540Z,9.40
2018-08-19T13:38:57.732Z,8.95
2018-08-19T13:41:27.848Z,11.05
2018-08-19T13:43:58.003Z,9.53
2018-08-19T13:46:28.139Z,8.60
2018-08-19T13:48:58.343Z,8.60
2018-08-19T13:51:28.569Z,7.78
2018-08-19T13:53:59.590Z,9.08
2018-08-19T13:56:30.162Z,9.58
2018-08-19T13:59:01.409Z,8.35
2018-08-19T14:01:31.567Z,9.20
2018-08-19T14:04:01.742Z,8.80
2018-08-19T14:06:31.960Z,8.55
2018-08-19T14:09:02.112Z,7.67
2018-08-19T14:11:32.316Z,7.85
2018-08-19T14:14:02.429Z,9.80
2018-08-19T14:16:33.271Z,8.30
2018-08-19T14:19:03.401Z,7.58
2018-08-19T14:21:33.657Z,7.72
2018-08-19T14:24:04.309Z,9.80
2018-08-19T14:26:35.845Z,11.43
2018-08-19T14:29:06.175Z,11.33
2018-08-19T14:31:36.406Z,8.70
2018-08-19T14:34:06.580Z,11.48
2018-08-19T14:36:36.774Z,8.68
2018-08-19T14:39:08.043Z,7.80
2018-08-19T14:41:38.278Z,7.70
2018-08-19T14:44:08.592Z,11.40
2018-08-19T14:46:39.490Z,11.43
2018-08-19T14:49:17.135Z,8.08
2018-08-19T14:51:57.500Z,8.60
2018-08-19T14:54:31.550Z,10.68
2018-08-19T14:57:01.797Z,8.80
2018-08-19T14:59:31.891Z,9.50
2018-08-19T15:02:02.242Z,9.10
2018-08-19T15:04:32.574Z,7.85
2018-08-19T15:07:02.756Z,8.58
2018-08-19T15:09:33.881Z,8.18
2018-08-19T15:12:11.957Z,7.45
2018-08-19T15:14:42.243Z,9.27
2018-08-19T15:17:12.821Z,10.15
2018-08-19T15:19:47.624Z,8.83
2018-08-19T15:22:18.019Z,8.53
2018-08-19T15:24:48.212Z,9.08
2018-08-19T15:27:18.539Z,12.53
2018-08-19T15:29:52.865Z,8.00
2018-08-19T15:32:25.546Z,10.23
2018-08-19T15:35:00.025Z,8.78
2018-08-19T15:37:30.158Z,9.03
2018-08-19T15:40:00.289Z,10.23
2018-08-19T15:42:30.352Z,9.95
2018-08-19T15:45:00.428Z,9.48
2018-08-19T15:47:30.615Z,8.75
2018-08-19T15:50:13.573Z,9.30
2018-08-19T15:52:43.780Z,9.50
2018-08-19T15:55:14.195Z,8.73
2018-08-19T15:57:44.357Z,9.23
2018-08-19T16:00:14.511Z,8.93
2018-08-19T16:02:44.664Z,11.50
2018-08-19T16:05:17.772Z,10.08
2018-08-19T16:07:48.067Z,8.80
2018-08-19T16:10:18.218Z,8.88
2018-08-19T16:12:51.179Z,7.72
2018-08-19T16:15:28.194Z,9.50
2018-08-19T16:17:59.025Z,9.18
2018-08-19T16:20:29.094Z,11.35
2018-08-19T16:22:59.275Z,9.90
2018-08-19T16:25:29.421Z,11.08
2018-08-19T16:27:59.472Z,9.58
2018-08-19T16:30:29.854Z,12.18
2018-08-19T16:32:59.925Z,11.08
2018-08-19T16:35:30.069Z,8.75
2018-08-19T16:38:00.218Z,8.80
2018-08-19T16:40:30.333Z,12.68
2018-08-19T16:43:00.449Z,9.65
2018-08-19T16:45:30.572Z,8.53
2018-08-19T16:48:00.698Z,9.28
2018-08-19T16:50:31.082Z,9.93
2018-08-19T16:53:01.140Z,11.75
2018-08-19T16:55:31.311Z,9.98
2018-08-19T16:58:01.539Z,8.40
2018-08-19T17:00:32.120Z,9.88
2018-08-19T17:03:06.885Z,8.75
2018-08-19T17:05:37.097Z,8.30
2018-08-19T17:08:07.706Z,7.50
2018-08-19T17:10:37.834Z,7.35
2018-08-19T17:13:07.897Z,14.45
2018-08-19T17:15:38.101Z,9.33
2018-08-19T17:18:08.516Z,9.58
2018-08-19T17:20:38.700Z,10.50
2018-08-19T17:23:08.861Z,11.40
2018-08-19T17:25:38.910Z,7.37
2018-08-19T17:28:16.031Z,11.03
2018-08-19T17:30:46.139Z,10.95
2018-08-19T17:33:16.259Z,8.63
2018-08-19T17:35:48.137Z,7.12
2018-08-19T17:38:18.506Z,11.18
2018-08-19T17:40:48.650Z,7.90
2018-08-19T17:43:18.889Z,9.15
2018-08-19T17:45:50.381Z,7.83
2018-08-19T17:48:20.341Z,9.38
2018-08-19T17:50:50.432Z,11.55
2018-08-19T17:53:20.621Z,9.93
2018-08-19T17:55:50.683Z,9.60
2018-08-19T17:58:20.846Z,10.40
2018-08-19T18:00:50.972Z,9.00
2018-08-19T18:03:21.034Z,8.10
2018-08-19T18:05:51.182Z,7.53
2018-08-19T18:08:21.293Z,8.50
2018-08-19T18:10:58.046Z,9.38
2018-08-19T18:13:29.809Z,12.05
2018-08-19T18:15:59.926Z,8.68
2018-08-19T18:18:30.078Z,9.78
2018-08-19T18:21:02.148Z,7.58
2018-08-19T18:23:32.294Z,7.65
2018-08-19T18:26:02.473Z,7.72
2018-08-19T18:28:33.208Z,7.12
2018-08-19T18:33:55.394Z,9.63
2018-08-19T18:36:33.759Z,8.98
2018-08-19T18:39:05.828Z,10.88
2018-08-19T18:41:37.391Z,10.57
2018-08-19T18:44:08.858Z,9.70
2018-08-19T18:46:39.062Z,7.50
2018-08-19T18:49:13.085Z,10.40
2018-08-19T18:51:50.823Z,10.58
2018-08-19T18:54:32.634Z,10.25
2018-08-19T18:57:08.160Z,12.53
2018-08-19T18:59:43.738Z,8.50
2018-08-19T19:02:13.953Z,9.78
2018-08-19T19:07:44.566Z,11.08
2018-08-19T19:10:14.683Z,8.60
2018-08-19T19:12:44.817Z,7.70
2018-08-19T19:15:15.193Z,9.67
2018-08-19T19:17:45.975Z,10.70
2018-08-19T19:20:16.279Z,9.63
2018-08-19T19:23:04.298Z,7.45
2018-08-19T19:25:39.329Z,10.93
2018-08-19T19:28:09.626Z,9.78
2018-08-19T19:30:39.832Z,6.50
2018-08-19T19:33:12.193Z,6.97
2018-08-19T19:35:42.571Z,8.93
2018-08-19T19:38:12.811Z,7.50
2018-08-19T19:40:43.424Z,8.45
2018-08-19T19:43:14.631Z,9.88
2018-08-19T19:45:49.994Z,7.42
2018-08-19T19:48:26.198Z,12.93
2018-08-19T19:50:56.811Z,10.43
2018-08-19T19:53:27.655Z,9.25
2018-08-19T19:56:20.049Z,8.47
2018-08-19T19:58:53.532Z,8.40
2018-08-19T20:01:25.428Z,10.18
2018-08-19T20:03:57.250Z,7.30
2018-08-19T20:06:30.037Z,7.43
2018-08-19T20:09:04.210Z,8.40
2018-08-19T20:11:35.408Z,9.88
2018-08-19T20:14:06.221Z,10.65
2018-08-19T20:16:40.050Z,7.25
2018-08-19T20:19:21.026Z,6.33
2018-08-19T20:21:53.213Z,9.03
2018-08-19T20:24:23.440Z,7.85
2018-08-19T20:26:55.628Z,9.90
2018-08-19T20:29:25.858Z,8.35
2018-08-19T20:31:56.180Z,7.90
2018-08-19T20:34:26.897Z,7.22
2018-08-19T20:36:57.218Z,6.90
2018-08-19T20:39:35.897Z,7.17
2018-08-19T20:42:06.711Z,9.38
2018-08-19T20:44:41.412Z,8.40
2018-08-19T20:47:20.149Z,7.50
2018-08-19T20:49:58.972Z,8.63
2018-08-19T20:52:49.139Z,6.87
2018-08-19T20:55:27.943Z,9.30
2018-08-19T20:58:05.781Z,8.65
2018-08-19T21:00:44.577Z,7.92
2018-08-19T21:03:14.954Z,6.95
2018-08-19T21:05:45.209Z,10.10
2018-08-19T21:08:17.877Z,11.93
2018-08-19T21:10:57.012Z,11.75
2018-08-19T21:13:27.839Z,11.85
2018-08-19T21:15:59.115Z,10.13
2018-08-19T21:18:30.466Z,11.57
2018-08-19T21:21:00.866Z,10.28
2018-08-19T21:23:31.202Z,12.70
2018-08-19T21:26:05.979Z,11.55
2018-08-19T21:28:43.029Z,11.65
2018-08-19T21:31:21.799Z,9.43
2018-08-19T21:33:52.459Z,11.80
2018-08-19T21:36:22.644Z,13.93
2018-08-19T21:38:52.980Z,12.03
2018-08-19T21:41:23.912Z,11.48
2018-08-19T21:43:54.284Z,12.90
2018-08-19T21:46:24.614Z,11.12
2018-08-19T21:48:55.555Z,9.65
2018-08-19T21:51:26.018Z,12.18
2018-08-19T21:53:56.319Z,11.90
2018-08-19T21:56:26.613Z,12.88
2018-08-19T21:58:56.908Z,11.95
2018-08-19T22:01:32.100Z,10.00
2018-08-19T22:04:02.460Z,11.85
2018-08-19T22:06:32.692Z,9.85
2018-08-19T22:09:03.555Z,11.50
2018-08-19T22:11:34.930Z,12.47
2018-08-19T22:14:05.385Z,10.40
2018-08-19T22:16:35.539Z,10.93
2018-08-19T22:19:05.776Z,11.45
2018-08-19T22:21:36.011Z,11.40
2018-08-19T22:24:07.201Z,10.63
2018-08-19T22:26:37.673Z,9.98
2018-08-19T22:29:16.058Z,14.13
2018-08-19T22:31:46.405Z,11.90
2018-08-19T22:34:17.096Z,16.48
2018-08-19T22:36:47.345Z,11.97
2018-08-19T22:39:20.506Z,12.25
2018-08-19T22:41:52.400Z,12.65
2018-08-19T22:44:23.551Z,12.98
2018-08-19T22:46:53.788Z,9.78
2018-08-19T22:49:27.015Z,12.10
2018-08-19T22:52:18.165Z,13.00
2018-08-19T22:54:48.998Z,11.20
2018-08-19T22:57:19.178Z,11.25
2018-08-19T22:59:49.398Z,15.20
2018-08-19T23:02:19.691Z,11.83
2018-08-19T23:04:51.690Z,13.20
2018-08-19T23:07:21.839Z,12.43
2018-08-19T23:09:51.978Z,11.70
2018-08-19T23:12:22.526Z,10.43
2018-08-19T23:15:08.961Z,14.00
2018-08-19T23:17:39.153Z,11.75
2018-08-19T23:20:09.413Z,12.47
2018-08-19T23:22:39.599Z,10.25
2018-08-19T23:25:09.874Z,13.95
2018-08-19T23:27:40.473Z,12.05
2018-08-19T23:30:10.952Z,13.35
2018-08-19T23:32:41.447Z,13.18
2018-08-19T23:35:11.773Z,12.33
2018-08-19T23:37:42.376Z,11.80
2018-08-19T23:40:13.325Z,13.48
2018-08-19T23:42:43.543Z,15.18
2018-08-19T23:45:18.177Z,14.40
2018-08-19T23:47:55.447Z,10.80
2018-08-19T23:50:26.153Z,12.63
2018-08-19T23:52:56.793Z,10.08
2018-08-19T23:55:27.219Z,12.23
2018-08-19T23:57:57.432Z,12.63
